sensor_id;sensor_type;location;lat;lon;timestamp;P1;durP1;ratioP1;P2;durP2;ratioP2
71502;SDS011;59322;51.382;7.372;2023-06-22T00:01:58;6.90;;;5.32;;
71502;SDS011;59322;51.382;7.372;2023-06-22T00:04:24;10.30;;;4.95;;
71502;SDS011;59322;51.382;7.372;2023-06-22T00:06:50;6.13;;;4.60;;
71502;SDS011;59322;51.382;7.372;2023-06-22T00:09:16;5.68;;;4.78;;
71502;SDS011;59322;51.382;7.372;2023-06-22T00:11:42;6.90;;;4.28;;
71502;SDS011;59322;51.382;7.372;2023-06-22T00:14:08;6.18;;;4.85;;
71502;SDS011;59322;51.382;7.372;2023-06-22T00:16:34;6.93;;;4.68;;
71502;SDS011;59322;51.382;7.372;2023-06-22T00:19:00;7.10;;;4.82;;
71502;SDS011;59322;51.382;7.372;2023-06-22T00:21:26;6.57;;;4.10;;
71502;SDS011;59322;51.382;7.372;2023-06-22T00:23:52;6.28;;;4.63;;
71502;SDS011;59322;51.382;7.372;2023-06-22T00:26:19;5.53;;;3.85;;
71502;SDS011;59322;51.382;7.372;2023-06-22T00:28:45;6.38;;;4.28;;
71502;SDS011;59322;51.382;7.372;2023-06-22T00:31:10;6.50;;;4.57;;
71502;SDS011;59322;51.382;7.372;2023-06-22T00:33:36;6.20;;;4.70;;
71502;SDS011;59322;51.382;7.372;2023-06-22T00:36:02;7.93;;;4.47;;
71502;SDS011;59322;51.382;7.372;2023-06-22T00:38:28;5.47;;;3.80;;
71502;SDS011;59322;51.382;7.372;2023-06-22T00:40:54;6.15;;;4.45;;
71502;SDS011;59322;51.382;7.372;2023-06-22T00:43:20;5.50;;;4.20;;
71502;SDS011;59322;51.382;7.372;2023-06-22T00:45:46;6.45;;;4.30;;
71502;SDS011;59322;51.382;7.372;2023-06-22T00:48:12;5.88;;;4.47;;
71502;SDS011;59322;51.382;7.372;2023-06-22T00:50:39;8.38;;;4.32;;
71502;SDS011;59322;51.382;7.372;2023-06-22T00:53:08;7.38;;;4.22;;
71502;SDS011;59322;51.382;7.372;2023-06-22T00:55:38;6.70;;;4.05;;
71502;SDS011;59322;51.382;7.372;2023-06-22T00:58:04;6.13;;;4.10;;
71502;SDS011;59322;51.382;7.372;2023-06-22T01:00:31;6.80;;;4.00;;
71502;SDS011;59322;51.382;7.372;2023-06-22T01:02:57;8.05;;;4.50;;
71502;SDS011;59322;51.382;7.372;2023-06-22T01:05:23;7.07;;;4.40;;
71502;SDS011;59322;51.382;7.372;2023-06-22T01:10:25;5.65;;;4.32;;
71502;SDS011;59322;51.382;7.372;2023-06-22T01:12:53;7.22;;;4.30;;
71502;SDS011;59322;51.382;7.372;2023-06-22T01:15:21;5.70;;;4.15;;
71502;SDS011;59322;51.382;7.372;2023-06-22T01:17:48;6.70;;;4.40;;
71502;SDS011;59322;51.382;7.372;2023-06-22T01:20:16;5.93;;;4.05;;
71502;SDS011;59322;51.382;7.372;2023-06-22T01:22:46;7.18;;;4.45;;
71502;SDS011;59322;51.382;7.372;2023-06-22T01:25:21;6.70;;;4.63;;
71502;SDS011;59322;51.382;7.372;2023-06-22T01:30:23;5.72;;;4.07;;
71502;SDS011;59322;51.382;7.372;2023-06-22T01:32:50;6.97;;;4.50;;
71502;SDS011;59322;51.382;7.372;2023-06-22T01:35:16;8.05;;;4.95;;
71502;SDS011;59322;51.382;7.372;2023-06-22T01:37:42;7.40;;;5.15;;
71502;SDS011;59322;51.382;7.372;2023-06-22T01:40:08;7.35;;;4.55;;
71502;SDS011;59322;51.382;7.372;2023-06-22T01:42:35;6.85;;;4.68;;
71502;SDS011;59322;51.382;7.372;2023-06-22T01:45:02;9.00;;;5.18;;
71502;SDS011;59322;51.382;7.372;2023-06-22T01:47:30;9.13;;;5.40;;
71502;SDS011;59322;51.382;7.372;2023-06-22T01:49:56;10.85;;;4.72;;
71502;SDS011;59322;51.382;7.372;2023-06-22T01:52:22;6.93;;;4.88;;
71502;SDS011;59322;51.382;7.372;2023-06-22T01:54:48;7.32;;;4.70;;
71502;SDS011;59322;51.382;7.372;2023-06-22T01:57:14;7.45;;;4.38;;
71502;SDS011;59322;51.382;7.372;2023-06-22T01:59:53;6.78;;;4.00;;
71502;SDS011;59322;51.382;7.372;2023-06-22T02:02:23;6.53;;;4.80;;
71502;SDS011;59322;51.382;7.372;2023-06-22T02:05:00;8.52;;;5.07;;
71502;SDS011;59322;51.382;7.372;2023-06-22T02:07:34;9.10;;;4.88;;
71502;SDS011;59322;51.382;7.372;2023-06-22T02:10:03;7.25;;;5.05;;
71502;SDS011;59322;51.382;7.372;2023-06-22T02:12:30;8.80;;;4.80;;
71502;SDS011;59322;51.382;7.372;2023-06-22T02:14:57;6.93;;;5.22;;
71502;SDS011;59322;51.382;7.372;2023-06-22T02:17:23;8.48;;;5.88;;
71502;SDS011;59322;51.382;7.372;2023-06-22T02:19:49;7.13;;;5.50;;
71502;SDS011;59322;51.382;7.372;2023-06-22T02:22:15;9.43;;;5.30;;
71502;SDS011;59322;51.382;7.372;2023-06-22T02:24:41;7.30;;;4.93;;
71502;SDS011;59322;51.382;7.372;2023-06-22T02:27:07;11.93;;;5.90;;
71502;SDS011;59322;51.382;7.372;2023-06-22T02:29:33;7.90;;;5.60;;
71502;SDS011;59322;51.382;7.372;2023-06-22T02:31:59;8.77;;;5.60;;
71502;SDS011;59322;51.382;7.372;2023-06-22T02:34:25;8.18;;;5.75;;
71502;SDS011;59322;51.382;7.372;2023-06-22T02:36:51;7.65;;;5.05;;
71502;SDS011;59322;51.382;7.372;2023-06-22T02:39:20;7.75;;;5.15;;
71502;SDS011;59322;51.382;7.372;2023-06-22T02:41:46;7.03;;;5.13;;
71502;SDS011;59322;51.382;7.372;2023-06-22T02:44:12;9.52;;;5.60;;
71502;SDS011;59322;51.382;7.372;2023-06-22T02:46:38;7.78;;;5.63;;
71502;SDS011;59322;51.382;7.372;2023-06-22T02:49:04;7.55;;;5.40;;
71502;SDS011;59322;51.382;7.372;2023-06-22T02:51:32;9.27;;;6.03;;
71502;SDS011;59322;51.382;7.372;2023-06-22T02:53:59;9.52;;;6.15;;
71502;SDS011;59322;51.382;7.372;2023-06-22T02:56:25;8.75;;;6.05;;
71502;SDS011;59322;51.382;7.372;2023-06-22T02:58:51;7.68;;;5.90;;
71502;SDS011;59322;51.382;7.372;2023-06-22T03:01:17;10.77;;;6.20;;
71502;SDS011;59322;51.382;7.372;2023-06-22T03:03:43;9.70;;;5.70;;
71502;SDS011;59322;51.382;7.372;2023-06-22T03:06:09;7.15;;;5.40;;
71502;SDS011;59322;51.382;7.372;2023-06-22T03:08:34;6.57;;;5.00;;
71502;SDS011;59322;51.382;7.372;2023-06-22T03:11:00;6.88;;;5.18;;
71502;SDS011;59322;51.382;7.372;2023-06-22T03:13:26;9.25;;;5.63;;
71502;SDS011;59322;51.382;7.372;2023-06-22T03:15:52;6.65;;;4.72;;
71502;SDS011;59322;51.382;7.372;2023-06-22T03:18:18;8.02;;;5.72;;
71502;SDS011;59322;51.382;7.372;2023-06-22T03:20:44;7.68;;;5.95;;
71502;SDS011;59322;51.382;7.372;2023-06-22T03:23:10;7.63;;;5.57;;
71502;SDS011;59322;51.382;7.372;2023-06-22T03:25:36;9.43;;;6.15;;
71502;SDS011;59322;51.382;7.372;2023-06-22T03:28:02;8.25;;;5.95;;
71502;SDS011;59322;51.382;7.372;2023-06-22T03:30:28;11.07;;;6.90;;
71502;SDS011;59322;51.382;7.372;2023-06-22T03:32:54;9.07;;;6.30;;
71502;SDS011;59322;51.382;7.372;2023-06-22T03:35:20;7.97;;;5.63;;
71502;SDS011;59322;51.382;7.372;2023-06-22T03:37:45;8.57;;;6.10;;
71502;SDS011;59322;51.382;7.372;2023-06-22T03:40:11;7.72;;;5.82;;
71502;SDS011;59322;51.382;7.372;2023-06-22T03:42:37;10.60;;;6.80;;
71502;SDS011;59322;51.382;7.372;2023-06-22T03:45:03;8.02;;;5.88;;
71502;SDS011;59322;51.382;7.372;2023-06-22T03:47:29;9.15;;;5.97;;
71502;SDS011;59322;51.382;7.372;2023-06-22T03:49:55;8.30;;;5.80;;
71502;SDS011;59322;51.382;7.372;2023-06-22T03:52:21;7.38;;;5.35;;
71502;SDS011;59322;51.382;7.372;2023-06-22T03:54:48;6.90;;;4.95;;
71502;SDS011;59322;51.382;7.372;2023-06-22T03:57:14;11.07;;;5.60;;
71502;SDS011;59322;51.382;7.372;2023-06-22T03:59:39;10.05;;;6.00;;
71502;SDS011;59322;51.382;7.372;2023-06-22T04:02:05;6.82;;;5.32;;
71502;SDS011;59322;51.382;7.372;2023-06-22T04:04:31;10.65;;;6.20;;
71502;SDS011;59322;51.382;7.372;2023-06-22T04:06:57;7.88;;;6.00;;
71502;SDS011;59322;51.382;7.372;2023-06-22T04:09:23;8.07;;;5.88;;
71502;SDS011;59322;51.382;7.372;2023-06-22T04:11:49;6.95;;;5.53;;
71502;SDS011;59322;51.382;7.372;2023-06-22T04:14:15;8.63;;;5.13;;
71502;SDS011;59322;51.382;7.372;2023-06-22T04:16:41;7.30;;;5.50;;
71502;SDS011;59322;51.382;7.372;2023-06-22T04:19:07;9.55;;;6.25;;
71502;SDS011;59322;51.382;7.372;2023-06-22T04:21:35;13.82;;;8.00;;
71502;SDS011;59322;51.382;7.372;2023-06-22T04:24:01;11.43;;;8.20;;
71502;SDS011;59322;51.382;7.372;2023-06-22T04:26:27;13.43;;;9.50;;
71502;SDS011;59322;51.382;7.372;2023-06-22T04:28:53;11.43;;;9.05;;
71502;SDS011;59322;51.382;7.372;2023-06-22T04:31:19;12.55;;;9.60;;
71502;SDS011;59322;51.382;7.372;2023-06-22T04:33:45;12.30;;;8.10;;
71502;SDS011;59322;51.382;7.372;2023-06-22T04:36:11;12.10;;;7.85;;
71502;SDS011;59322;51.382;7.372;2023-06-22T04:38:37;15.27;;;8.18;;
71502;SDS011;59322;51.382;7.372;2023-06-22T04:41:03;10.45;;;7.72;;
71502;SDS011;59322;51.382;7.372;2023-06-22T04:43:28;12.35;;;8.07;;
71502;SDS011;59322;51.382;7.372;2023-06-22T04:45:54;14.32;;;8.15;;
71502;SDS011;59322;51.382;7.372;2023-06-22T04:48:20;11.32;;;7.80;;
71502;SDS011;59322;51.382;7.372;2023-06-22T04:50:46;12.57;;;8.10;;
71502;SDS011;59322;51.382;7.372;2023-06-22T04:53:12;15.90;;;8.75;;
71502;SDS011;59322;51.382;7.372;2023-06-22T04:55:39;11.63;;;7.85;;
71502;SDS011;59322;51.382;7.372;2023-06-22T04:58:05;13.82;;;9.60;;
71502;SDS011;59322;51.382;7.372;2023-06-22T05:00:30;12.88;;;8.40;;
71502;SDS011;59322;51.382;7.372;2023-06-22T05:02:56;14.05;;;9.07;;
71502;SDS011;59322;51.382;7.372;2023-06-22T05:05:22;14.80;;;9.52;;
71502;SDS011;59322;51.382;7.372;2023-06-22T05:07:49;13.63;;;9.48;;
71502;SDS011;59322;51.382;7.372;2023-06-22T05:10:15;17.10;;;10.43;;
71502;SDS011;59322;51.382;7.372;2023-06-22T05:12:41;15.93;;;10.35;;
71502;SDS011;59322;51.382;7.372;2023-06-22T05:15:08;15.32;;;10.07;;
71502;SDS011;59322;51.382;7.372;2023-06-22T05:17:34;16.58;;;11.82;;
71502;SDS011;59322;51.382;7.372;2023-06-22T05:20:00;16.75;;;10.93;;
71502;SDS011;59322;51.382;7.372;2023-06-22T05:22:26;15.38;;;10.90;;
71502;SDS011;59322;51.382;7.372;2023-06-22T05:24:52;18.55;;;11.10;;
71502;SDS011;59322;51.382;7.372;2023-06-22T05:27:18;16.70;;;11.70;;
71502;SDS011;59322;51.382;7.372;2023-06-22T05:29:44;16.10;;;11.30;;
71502;SDS011;59322;51.382;7.372;2023-06-22T05:32:10;15.43;;;12.13;;
71502;SDS011;59322;51.382;7.372;2023-06-22T05:34:36;14.05;;;11.00;;
71502;SDS011;59322;51.382;7.372;2023-06-22T05:37:02;14.82;;;11.00;;
71502;SDS011;59322;51.382;7.372;2023-06-22T05:39:28;16.02;;;12.23;;
71502;SDS011;59322;51.382;7.372;2023-06-22T05:41:54;15.20;;;11.50;;
71502;SDS011;59322;51.382;7.372;2023-06-22T05:44:20;15.80;;;12.45;;
71502;SDS011;59322;51.382;7.372;2023-06-22T05:46:46;15.32;;;11.20;;
71502;SDS011;59322;51.382;7.372;2023-06-22T05:49:12;15.80;;;10.70;;
71502;SDS011;59322;51.382;7.372;2023-06-22T05:51:38;16.58;;;11.80;;
71502;SDS011;59322;51.382;7.372;2023-06-22T05:54:04;15.20;;;10.95;;
71502;SDS011;59322;51.382;7.372;2023-06-22T05:56:30;16.15;;;11.63;;
71502;SDS011;59322;51.382;7.372;2023-06-22T05:58:56;15.95;;;11.52;;
71502;SDS011;59322;51.382;7.372;2023-06-22T06:01:22;13.57;;;11.38;;
71502;SDS011;59322;51.382;7.372;2023-06-22T06:03:48;14.93;;;11.20;;
71502;SDS011;59322;51.382;7.372;2023-06-22T06:06:14;15.43;;;11.23;;
71502;SDS011;59322;51.382;7.372;2023-06-22T06:08:40;17.75;;;11.80;;
71502;SDS011;59322;51.382;7.372;2023-06-22T06:11:06;16.10;;;11.27;;
71502;SDS011;59322;51.382;7.372;2023-06-22T06:13:32;14.55;;;11.25;;
71502;SDS011;59322;51.382;7.372;2023-06-22T06:15:58;14.27;;;10.48;;
71502;SDS011;59322;51.382;7.372;2023-06-22T06:18:24;14.35;;;11.85;;
71502;SDS011;59322;51.382;7.372;2023-06-22T06:20:50;15.13;;;11.50;;
71502;SDS011;59322;51.382;7.372;2023-06-22T06:23:16;15.77;;;11.80;;
71502;SDS011;59322;51.382;7.372;2023-06-22T06:25:42;15.13;;;10.85;;
71502;SDS011;59322;51.382;7.372;2023-06-22T06:28:07;14.18;;;10.82;;
71502;SDS011;59322;51.382;7.372;2023-06-22T06:30:33;16.70;;;11.52;;
71502;SDS011;59322;51.382;7.372;2023-06-22T06:32:59;15.82;;;11.27;;
71502;SDS011;59322;51.382;7.372;2023-06-22T06:35:25;15.85;;;11.82;;
71502;SDS011;59322;51.382;7.372;2023-06-22T06:37:51;16.83;;;12.80;;
71502;SDS011;59322;51.382;7.372;2023-06-22T06:40:18;17.83;;;13.52;;
71502;SDS011;59322;51.382;7.372;2023-06-22T06:42:44;19.90;;;12.82;;
71502;SDS011;59322;51.382;7.372;2023-06-22T06:45:11;15.98;;;12.80;;
71502;SDS011;59322;51.382;7.372;2023-06-22T06:47:37;14.82;;;11.90;;
71502;SDS011;59322;51.382;7.372;2023-06-22T06:50:04;16.95;;;13.82;;
71502;SDS011;59322;51.382;7.372;2023-06-22T06:52:30;17.02;;;13.00;;
71502;SDS011;59322;51.382;7.372;2023-06-22T06:54:56;16.38;;;12.77;;
71502;SDS011;59322;51.382;7.372;2023-06-22T06:57:21;17.90;;;13.63;;
71502;SDS011;59322;51.382;7.372;2023-06-22T06:59:48;17.15;;;13.07;;
71502;SDS011;59322;51.382;7.372;2023-06-22T07:02:14;16.52;;;12.75;;
71502;SDS011;59322;51.382;7.372;2023-06-22T07:04:40;19.52;;;13.82;;
71502;SDS011;59322;51.382;7.372;2023-06-22T07:07:06;20.05;;;13.70;;
71502;SDS011;59322;51.382;7.372;2023-06-22T07:09:32;17.77;;;13.35;;
71502;SDS011;59322;51.382;7.372;2023-06-22T07:11:58;17.38;;;13.00;;
71502;SDS011;59322;51.382;7.372;2023-06-22T07:14:23;17.88;;;14.18;;
71502;SDS011;59322;51.382;7.372;2023-06-22T07:16:49;15.43;;;12.80;;
71502;SDS011;59322;51.382;7.372;2023-06-22T07:19:15;16.90;;;13.32;;
71502;SDS011;59322;51.382;7.372;2023-06-22T07:21:41;19.35;;;12.90;;
71502;SDS011;59322;51.382;7.372;2023-06-22T07:24:07;20.73;;;14.90;;
71502;SDS011;59322;51.382;7.372;2023-06-22T07:26:33;18.90;;;14.70;;
71502;SDS011;59322;51.382;7.372;2023-06-22T07:28:59;17.33;;;13.77;;
71502;SDS011;59322;51.382;7.372;2023-06-22T07:31:25;17.45;;;13.05;;
71502;SDS011;59322;51.382;7.372;2023-06-22T07:33:52;17.27;;;14.43;;
71502;SDS011;59322;51.382;7.372;2023-06-22T07:36:18;18.95;;;13.55;;
71502;SDS011;59322;51.382;7.372;2023-06-22T07:38:44;17.25;;;14.27;;
71502;SDS011;59322;51.382;7.372;2023-06-22T07:41:10;16.10;;;13.60;;
71502;SDS011;59322;51.382;7.372;2023-06-22T07:43:35;17.63;;;13.45;;
71502;SDS011;59322;51.382;7.372;2023-06-22T07:46:01;18.27;;;13.40;;
71502;SDS011;59322;51.382;7.372;2023-06-22T07:48:27;18.10;;;12.85;;
71502;SDS011;59322;51.382;7.372;2023-06-22T07:50:53;16.02;;;12.23;;
71502;SDS011;59322;51.382;7.372;2023-06-22T07:53:20;16.35;;;12.07;;
71502;SDS011;59322;51.382;7.372;2023-06-22T07:55:46;16.52;;;12.80;;
71502;SDS011;59322;51.382;7.372;2023-06-22T07:58:12;15.02;;;11.88;;
71502;SDS011;59322;51.382;7.372;2023-06-22T08:00:38;16.98;;;13.18;;
71502;SDS011;59322;51.382;7.372;2023-06-22T08:03:03;16.40;;;12.00;;
71502;SDS011;59322;51.382;7.372;2023-06-22T08:05:29;17.98;;;11.82;;
71502;SDS011;59322;51.382;7.372;2023-06-22T08:07:55;15.15;;;12.32;;
71502;SDS011;59322;51.382;7.372;2023-06-22T08:10:21;17.35;;;12.70;;
71502;SDS011;59322;51.382;7.372;2023-06-22T08:12:47;15.10;;;12.43;;
71502;SDS011;59322;51.382;7.372;2023-06-22T08:15:13;16.08;;;13.15;;
71502;SDS011;59322;51.382;7.372;2023-06-22T08:17:39;19.50;;;14.05;;
71502;SDS011;59322;51.382;7.372;2023-06-22T08:20:05;14.48;;;12.88;;
71502;SDS011;59322;51.382;7.372;2023-06-22T08:22:31;20.08;;;13.55;;
71502;SDS011;59322;51.382;7.372;2023-06-22T08:24:57;16.10;;;13.00;;
71502;SDS011;59322;51.382;7.372;2023-06-22T08:27:23;17.83;;;13.30;;
71502;SDS011;59322;51.382;7.372;2023-06-22T08:29:49;16.25;;;13.10;;
71502;SDS011;59322;51.382;7.372;2023-06-22T08:32:15;16.95;;;13.10;;
71502;SDS011;59322;51.382;7.372;2023-06-22T08:34:41;17.88;;;12.40;;
71502;SDS011;59322;51.382;7.372;2023-06-22T08:37:07;15.50;;;11.90;;
71502;SDS011;59322;51.382;7.372;2023-06-22T08:39:33;13.27;;;11.55;;
71502;SDS011;59322;51.382;7.372;2023-06-22T08:41:59;15.25;;;11.52;;
71502;SDS011;59322;51.382;7.372;2023-06-22T08:44:25;14.70;;;10.68;;
71502;SDS011;59322;51.382;7.372;2023-06-22T08:46:51;13.27;;;10.88;;
71502;SDS011;59322;51.382;7.372;2023-06-22T08:49:17;12.73;;;10.25;;
71502;SDS011;59322;51.382;7.372;2023-06-22T08:51:43;12.18;;;9.27;;
71502;SDS011;59322;51.382;7.372;2023-06-22T08:54:08;12.75;;;8.80;;
71502;SDS011;59322;51.382;7.372;2023-06-22T08:56:34;12.30;;;8.40;;
71502;SDS011;59322;51.382;7.372;2023-06-22T08:59:00;8.70;;;7.75;;
71502;SDS011;59322;51.382;7.372;2023-06-22T09:01:27;9.18;;;7.57;;
71502;SDS011;59322;51.382;7.372;2023-06-22T09:03:53;10.27;;;7.35;;
71502;SDS011;59322;51.382;7.372;2023-06-22T09:06:19;9.82;;;7.72;;
71502;SDS011;59322;51.382;7.372;2023-06-22T09:08:44;9.95;;;8.18;;
71502;SDS011;59322;51.382;7.372;2023-06-22T09:11:10;11.02;;;8.18;;
71502;SDS011;59322;51.382;7.372;2023-06-22T09:13:36;12.55;;;7.65;;
71502;SDS011;59322;51.382;7.372;2023-06-22T09:16:02;10.50;;;7.95;;
71502;SDS011;59322;51.382;7.372;2023-06-22T09:18:28;10.95;;;8.45;;
71502;SDS011;59322;51.382;7.372;2023-06-22T09:20:54;12.23;;;9.05;;
71502;SDS011;59322;51.382;7.372;2023-06-22T09:23:20;13.13;;;10.13;;
71502;SDS011;59322;51.382;7.372;2023-06-22T09:25:46;11.32;;;8.70;;
71502;SDS011;59322;51.382;7.372;2023-06-22T09:28:12;11.43;;;9.60;;
71502;SDS011;59322;51.382;7.372;2023-06-22T09:30:38;12.32;;;10.30;;
71502;SDS011;59322;51.382;7.372;2023-06-22T09:33:03;13.95;;;10.45;;
71502;SDS011;59322;51.382;7.372;2023-06-22T09:35:29;12.70;;;10.32;;
71502;SDS011;59322;51.382;7.372;2023-06-22T09:37:55;12.50;;;9.65;;
71502;SDS011;59322;51.382;7.372;2023-06-22T09:40:21;12.32;;;9.70;;
71502;SDS011;59322;51.382;7.372;2023-06-22T09:42:47;13.13;;;9.80;;
71502;SDS011;59322;51.382;7.372;2023-06-22T09:45:13;11.38;;;8.52;;
71502;SDS011;59322;51.382;7.372;2023-06-22T09:47:39;11.18;;;8.93;;
71502;SDS011;59322;51.382;7.372;2023-06-22T09:50:05;10.23;;;8.38;;
71502;SDS011;59322;51.382;7.372;2023-06-22T09:52:31;12.40;;;8.27;;
71502;SDS011;59322;51.382;7.372;2023-06-22T09:54:57;12.20;;;8.43;;
71502;SDS011;59322;51.382;7.372;2023-06-22T09:57:23;11.65;;;8.25;;
71502;SDS011;59322;51.382;7.372;2023-06-22T09:59:49;11.20;;;8.10;;
71502;SDS011;59322;51.382;7.372;2023-06-22T10:02:15;9.52;;;8.13;;
71502;SDS011;59322;51.382;7.372;2023-06-22T10:04:40;9.80;;;8.00;;
71502;SDS011;59322;51.382;7.372;2023-06-22T10:07:06;13.65;;;8.15;;
71502;SDS011;59322;51.382;7.372;2023-06-22T10:09:32;11.57;;;8.60;;
71502;SDS011;59322;51.382;7.372;2023-06-22T10:11:58;13.25;;;8.90;;
71502;SDS011;59322;51.382;7.372;2023-06-22T10:14:24;10.38;;;8.63;;
71502;SDS011;59322;51.382;7.372;2023-06-22T10:16:51;11.07;;;8.88;;
71502;SDS011;59322;51.382;7.372;2023-06-22T10:19:17;12.20;;;9.45;;
71502;SDS011;59322;51.382;7.372;2023-06-22T10:21:43;12.60;;;8.63;;
71502;SDS011;59322;51.382;7.372;2023-06-22T10:24:09;12.35;;;9.02;;
71502;SDS011;59322;51.382;7.372;2023-06-22T10:26:35;13.15;;;8.95;;
71502;SDS011;59322;51.382;7.372;2023-06-22T10:29:01;12.10;;;9.70;;
71502;SDS011;59322;51.382;7.372;2023-06-22T10:31:27;12.90;;;10.38;;
71502;SDS011;59322;51.382;7.372;2023-06-22T10:33:54;14.07;;;10.43;;
71502;SDS011;59322;51.382;7.372;2023-06-22T10:36:20;12.30;;;10.18;;
71502;SDS011;59322;51.382;7.372;2023-06-22T10:38:46;14.80;;;10.52;;
71502;SDS011;59322;51.382;7.372;2023-06-22T10:41:12;11.65;;;9.77;;
71502;SDS011;59322;51.382;7.372;2023-06-22T10:43:38;12.43;;;10.15;;
71502;SDS011;59322;51.382;7.372;2023-06-22T10:46:04;12.32;;;9.77;;
71502;SDS011;59322;51.382;7.372;2023-06-22T10:48:30;11.88;;;10.43;;
71502;SDS011;59322;51.382;7.372;2023-06-22T10:50:56;12.57;;;9.85;;
71502;SDS011;59322;51.382;7.372;2023-06-22T10:53:22;10.85;;;9.20;;
71502;SDS011;59322;51.382;7.372;2023-06-22T10:55:48;13.18;;;9.07;;
71502;SDS011;59322;51.382;7.372;2023-06-22T10:58:14;14.73;;;9.48;;
71502;SDS011;59322;51.382;7.372;2023-06-22T11:00:40;17.55;;;10.25;;
71502;SDS011;59322;51.382;7.372;2023-06-22T11:03:06;12.35;;;10.07;;
71502;SDS011;59322;51.382;7.372;2023-06-22T11:05:31;13.35;;;10.93;;
71502;SDS011;59322;51.382;7.372;2023-06-22T11:07:57;14.18;;;10.75;;
71502;SDS011;59322;51.382;7.372;2023-06-22T11:10:23;14.40;;;10.77;;
71502;SDS011;59322;51.382;7.372;2023-06-22T11:12:49;12.38;;;10.85;;
71502;SDS011;59322;51.382;7.372;2023-06-22T11:15:15;14.48;;;10.93;;
71502;SDS011;59322;51.382;7.372;2023-06-22T11:17:41;15.65;;;11.20;;
71502;SDS011;59322;51.382;7.372;2023-06-22T11:20:07;12.27;;;10.65;;
71502;SDS011;59322;51.382;7.372;2023-06-22T11:22:33;16.30;;;12.20;;
71502;SDS011;59322;51.382;7.372;2023-06-22T11:24:59;16.92;;;13.10;;
71502;SDS011;59322;51.382;7.372;2023-06-22T11:27:25;16.98;;;12.25;;
71502;SDS011;59322;51.382;7.372;2023-06-22T11:29:51;13.95;;;11.82;;
71502;SDS011;59322;51.382;7.372;2023-06-22T11:32:16;18.05;;;12.13;;
71502;SDS011;59322;51.382;7.372;2023-06-22T11:34:42;17.77;;;12.82;;
71502;SDS011;59322;51.382;7.372;2023-06-22T11:37:08;16.98;;;14.32;;
71502;SDS011;59322;51.382;7.372;2023-06-22T11:39:34;18.90;;;14.73;;
71502;SDS011;59322;51.382;7.372;2023-06-22T11:42:00;21.60;;;15.88;;
71502;SDS011;59322;51.382;7.372;2023-06-22T11:44:26;18.88;;;15.27;;
71502;SDS011;59322;51.382;7.372;2023-06-22T11:46:52;20.08;;;15.93;;
71502;SDS011;59322;51.382;7.372;2023-06-22T11:49:18;22.05;;;16.45;;
71502;SDS011;59322;51.382;7.372;2023-06-22T11:51:44;23.80;;;17.08;;
71502;SDS011;59322;51.382;7.372;2023-06-22T11:54:09;24.88;;;16.63;;
71502;SDS011;59322;51.382;7.372;2023-06-22T11:56:35;25.63;;;17.63;;
71502;SDS011;59322;51.382;7.372;2023-06-22T11:59:01;25.17;;;18.65;;
71502;SDS011;59322;51.382;7.372;2023-06-22T12:01:27;24.80;;;19.83;;
71502;SDS011;59322;51.382;7.372;2023-06-22T12:03:53;27.52;;;19.50;;
71502;SDS011;59322;51.382;7.372;2023-06-22T12:06:19;24.80;;;20.30;;
71502;SDS011;59322;51.382;7.372;2023-06-22T12:08:45;26.73;;;21.52;;
71502;SDS011;59322;51.382;7.372;2023-06-22T12:11:11;28.58;;;21.00;;
71502;SDS011;59322;51.382;7.372;2023-06-22T12:13:37;30.58;;;21.73;;
71502;SDS011;59322;51.382;7.372;2023-06-22T12:16:02;26.60;;;22.08;;
71502;SDS011;59322;51.382;7.372;2023-06-22T12:18:28;25.38;;;21.42;;
71502;SDS011;59322;51.382;7.372;2023-06-22T12:20:54;25.55;;;19.13;;
71502;SDS011;59322;51.382;7.372;2023-06-22T12:23:20;25.60;;;19.83;;
71502;SDS011;59322;51.382;7.372;2023-06-22T12:25:46;28.27;;;21.05;;
71502;SDS011;59322;51.382;7.372;2023-06-22T12:28:12;26.52;;;20.60;;
71502;SDS011;59322;51.382;7.372;2023-06-22T12:30:38;27.33;;;20.42;;
71502;SDS011;59322;51.382;7.372;2023-06-22T12:33:04;31.65;;;21.75;;
71502;SDS011;59322;51.382;7.372;2023-06-22T12:35:30;28.98;;;20.50;;
71502;SDS011;59322;51.382;7.372;2023-06-22T12:37:56;30.10;;;21.10;;
71502;SDS011;59322;51.382;7.372;2023-06-22T12:40:21;26.73;;;20.17;;
71502;SDS011;59322;51.382;7.372;2023-06-22T12:42:47;26.75;;;19.45;;
71502;SDS011;59322;51.382;7.372;2023-06-22T12:45:13;23.85;;;18.60;;
71502;SDS011;59322;51.382;7.372;2023-06-22T12:47:39;25.40;;;18.42;;
71502;SDS011;59322;51.382;7.372;2023-06-22T12:50:06;24.15;;;19.10;;
71502;SDS011;59322;51.382;7.372;2023-06-22T12:52:32;24.88;;;20.10;;
71502;SDS011;59322;51.382;7.372;2023-06-22T12:54:58;24.88;;;20.15;;
71502;SDS011;59322;51.382;7.372;2023-06-22T12:57:24;31.75;;;21.08;;
71502;SDS011;59322;51.382;7.372;2023-06-22T12:59:50;27.98;;;20.90;;
71502;SDS011;59322;51.382;7.372;2023-06-22T13:02:16;27.13;;;20.08;;
71502;SDS011;59322;51.382;7.372;2023-06-22T13:04:42;25.42;;;18.65;;
71502;SDS011;59322;51.382;7.372;2023-06-22T13:07:08;24.65;;;19.08;;
71502;SDS011;59322;51.382;7.372;2023-06-22T13:09:35;20.55;;;17.05;;
71502;SDS011;59322;51.382;7.372;2023-06-22T13:12:01;20.80;;;16.58;;
71502;SDS011;59322;51.382;7.372;2023-06-22T13:14:27;21.30;;;16.02;;
71502;SDS011;59322;51.382;7.372;2023-06-22T13:16:53;20.88;;;15.93;;
71502;SDS011;59322;51.382;7.372;2023-06-22T13:19:19;19.20;;;15.50;;
71502;SDS011;59322;51.382;7.372;2023-06-22T13:21:45;21.55;;;16.42;;
71502;SDS011;59322;51.382;7.372;2023-06-22T13:24:11;19.05;;;15.85;;
71502;SDS011;59322;51.382;7.372;2023-06-22T13:26:37;21.20;;;16.40;;
71502;SDS011;59322;51.382;7.372;2023-06-22T13:29:02;22.50;;;15.73;;
71502;SDS011;59322;51.382;7.372;2023-06-22T13:31:28;20.75;;;16.45;;
71502;SDS011;59322;51.382;7.372;2023-06-22T13:33:54;19.30;;;16.20;;
71502;SDS011;59322;51.382;7.372;2023-06-22T13:36:20;18.70;;;14.93;;
71502;SDS011;59322;51.382;7.372;2023-06-22T13:38:46;19.85;;;15.13;;
71502;SDS011;59322;51.382;7.372;2023-06-22T13:41:12;18.52;;;15.30;;
71502;SDS011;59322;51.382;7.372;2023-06-22T13:43:38;21.75;;;16.20;;
71502;SDS011;59322;51.382;7.372;2023-06-22T13:46:04;19.55;;;16.02;;
71502;SDS011;59322;51.382;7.372;2023-06-22T13:48:30;22.65;;;17.30;;
71502;SDS011;59322;51.382;7.372;2023-06-22T13:50:57;20.85;;;15.25;;
71502;SDS011;59322;51.382;7.372;2023-06-22T13:53:24;18.50;;;14.32;;
71502;SDS011;59322;51.382;7.372;2023-06-22T13:55:50;18.98;;;15.75;;
71502;SDS011;59322;51.382;7.372;2023-06-22T13:58:16;20.85;;;16.88;;
71502;SDS011;59322;51.382;7.372;2023-06-22T14:00:41;19.20;;;16.25;;
71502;SDS011;59322;51.382;7.372;2023-06-22T14:03:07;22.02;;;16.88;;
71502;SDS011;59322;51.382;7.372;2023-06-22T14:05:33;21.35;;;18.15;;
71502;SDS011;59322;51.382;7.372;2023-06-22T14:07:59;20.52;;;17.50;;
71502;SDS011;59322;51.382;7.372;2023-06-22T14:10:25;22.20;;;18.42;;
71502;SDS011;59322;51.382;7.372;2023-06-22T14:12:51;21.70;;;18.10;;
71502;SDS011;59322;51.382;7.372;2023-06-22T14:15:17;21.92;;;16.90;;
71502;SDS011;59322;51.382;7.372;2023-06-22T14:17:43;18.65;;;15.77;;
71502;SDS011;59322;51.382;7.372;2023-06-22T14:20:09;19.17;;;16.27;;
71502;SDS011;59322;51.382;7.372;2023-06-22T14:22:35;20.75;;;15.10;;
71502;SDS011;59322;51.382;7.372;2023-06-22T14:25:01;20.98;;;16.23;;
71502;SDS011;59322;51.382;7.372;2023-06-22T14:27:27;18.42;;;15.27;;
71502;SDS011;59322;51.382;7.372;2023-06-22T14:29:53;20.48;;;15.52;;